Time;durP1;ratioP1;P1;durP2;ratioP2;P2;SDS_P1;SDS_P2;PMS_P1;PMS_P2;Temp;Humidity;BMP_temperature;BMP_pressure;BME280_temperature;BME280_humidity;BME280_pressure;Samples;Min_cycle;Max_cycle;Signal;HPM_P1;HPM_P2
2022/08/17 00:00:49;;;;;;;14.20;13.00;;;23.40;95.60;;;;;;4993773;28;20422;-66
2022/08/17 00:03:26;;;;;;;15.00;13.70;;;23.40;95.60;;;;;;4994291;28;20471;-66
2022/08/17 00:06:05;;;;;;;14.07;12.80;;;23.40;95.60;;;;;;4993462;28;20782;-66
2022/08/17 00:08:40;;;;;;;14.83;13.60;;;23.40;95.40;;;;;;5006948;28;20430;-66
2022/08/17 00:11:09;;;;;;;15.57;14.37;;;23.30;95.50;;;;;;5008422;28;20442;-66
2022/08/17 00:13:47;;;;;;;14.67;13.57;;;23.30;96.00;;;;;;4994211;28;20754;-73
2022/08/17 00:16:18;;;;;;;14.43;13.20;;;23.30;95.60;;;;;;4994485;28;20441;-66
2022/08/17 00:18:44;;;;;;;14.67;13.50;;;23.30;95.80;;;;;;4993570;28;20407;-66
2022/08/17 00:21:12;;;;;;;15.83;14.53;;;23.30;95.80;;;;;;4994229;28;20422;-66
2022/08/17 00:23:40;;;;;;;15.20;14.10;;;23.20;95.70;;;;;;4993635;28;20835;-74
2022/08/17 00:26:06;;;;;;;16.13;14.70;;;23.00;95.70;;;;;;5011064;28;20470;-66
2022/08/17 00:28:31;;;;;;;15.30;14.10;;;22.80;96.30;;;;;;4996048;28;20429;-66
2022/08/17 00:30:58;;;;;;;15.40;14.23;;;22.70;96.70;;;;;;5012223;28;20876;-66
2022/08/17 00:33:27;;;;;;;15.40;14.20;;;22.70;97.20;;;;;;5013081;28;20175;-66
2022/08/17 00:35:55;;;;;;;15.63;14.33;;;22.80;97.50;;;;;;4994396;28;20442;-66
2022/08/17 00:38:22;;;;;;;15.60;14.30;;;22.80;97.60;;;;;;4993734;28;20443;-66
2022/08/17 00:40:49;;;;;;;16.67;15.07;;;22.80;97.60;;;;;;4992815;28;20437;-66
2022/08/17 00:43:19;;;;;;;16.23;14.93;;;22.90;97.50;;;;;;4993887;28;20461;-66
2022/08/17 00:45:45;;;;;;;17.77;15.07;;;22.90;97.50;;;;;;5000483;28;20470;-66
2022/08/17 00:48:11;;;;;;;15.67;14.27;;;22.90;97.30;;;;;;5012928;28;20406;-66
2022/08/17 00:50:42;;;;;;;15.47;14.07;;;22.90;97.00;;;;;;5012809;28;20406;-74
2022/08/17 00:53:08;;;;;;;16.27;14.87;;;22.90;97.10;;;;;;5013344;28;20395;-66
2022/08/17 00:55:34;;;;;;;15.50;14.10;;;22.90;97.40;;;;;;5013188;28;20928;-66
2022/08/17 00:58:04;;;;;;;15.87;14.57;;;23.00;97.10;;;;;;5000948;28;20712;-66
2022/08/17 01:00:39;;;;;;;16.40;15.00;;;23.00;97.10;;;;;;4993579;28;20445;-66
2022/08/17 01:03:18;;;;;;;16.27;14.73;;;23.00;97.30;;;;;;4992779;28;20561;-66
2022/08/17 01:05:47;;;;;;;14.80;13.70;;;23.00;97.50;;;;;;5010273;28;20474;-66
2022/08/17 01:08:18;;;;;;;16.00;14.70;;;23.00;97.40;;;;;;4998729;28;20435;-65
2022/08/17 01:10:51;;;;;;;16.10;14.47;;;23.00;97.70;;;;;;4992665;28;20410;-66
2022/08/17 01:13:18;;;;;;;15.30;14.10;;;23.00;97.50;;;;;;4993514;28;20398;-66
2022/08/17 01:16:06;;;;;;;16.73;15.13;;;22.90;97.30;;;;;;5006760;28;20441;-66
2022/08/17 01:18:33;;;;;;;16.20;14.77;;;23.00;97.30;;;;;;5013239;28;20410;-66
2022/08/17 01:21:09;;;;;;;16.40;15.10;;;22.90;97.20;;;;;;4993851;28;20431;-66
2022/08/17 01:23:35;;;;;;;15.93;14.47;;;22.90;97.10;;;;;;4993617;28;20405;-66
2022/08/17 01:26:04;;;;;;;15.40;14.17;;;22.90;97.10;;;;;;4992261;28;20458;-66
2022/08/17 01:28:33;;;;;;;14.90;13.70;;;22.90;97.20;;;;;;4993049;28;20430;-66
2022/08/17 01:31:01;;;;;;;15.53;14.20;;;22.80;97.10;;;;;;4992220;28;20406;-66
2022/08/17 01:33:27;;;;;;;15.93;14.57;;;22.70;96.90;;;;;;4992913;28;20453;-66
2022/08/17 01:35:53;;;;;;;16.97;15.47;;;22.40;97.30;;;;;;4991836;28;20430;-65
2022/08/17 01:38:19;;;;;;;16.77;15.23;;;22.20;97.70;;;;;;5001166;28;20436;-66
2022/08/17 01:40:57;;;;;;;14.30;13.07;;;22.10;98.00;;;;;;5011803;28;20542;-66
2022/08/17 01:43:30;;;;;;;15.20;13.77;;;22.00;98.30;;;;;;4994999;28;20195;-66
2022/08/17 01:45:58;;;;;;;15.73;14.43;;;22.00;98.40;;;;;;5011215;28;20466;-66
2022/08/17 01:48:30;;;;;;;14.93;13.70;;;22.00;98.40;;;;;;5005358;28;20441;-66
2022/08/17 01:50:56;;;;;;;16.60;15.10;;;21.90;98.50;;;;;;4991124;28;20505;-66
2022/08/17 01:53:26;;;;;;;16.70;15.40;;;21.80;98.70;;;;;;5008861;28;20433;-66
2022/08/17 01:55:56;;;;;;;15.37;14.07;;;21.70;99.00;;;;;;5011613;28;20270;-66
2022/08/17 01:58:22;;;;;;;16.20;14.90;;;21.60;99.20;;;;;;5012297;28;20448;-66
2022/08/17 02:00:50;;;;;;;14.63;13.43;;;21.50;99.50;;;;;;5010345;28;20433;-68
2022/08/17 02:03:21;;;;;;;16.23;14.90;;;21.60;99.60;;;;;;5011801;28;20237;-66
2022/08/17 02:05:47;;;;;;;16.43;14.83;;;21.70;99.60;;;;;;5010566;28;20972;-67
2022/08/17 02:08:14;;;;;;;15.90;14.70;;;21.80;99.90;;;;;;5012325;28;20417;-66
2022/08/17 02:10:40;;;;;;;14.87;13.50;;;21.80;99.50;;;;;;4996813;28;20469;-65
2022/08/17 02:13:06;;;;;;;15.53;14.30;;;21.90;99.50;;;;;;4991937;28;20419;-66
2022/08/17 02:15:33;;;;;;;15.33;14.03;;;21.90;99.20;;;;;;4992613;28;20434;-66
2022/08/17 02:18:00;;;;;;;16.77;15.30;;;22.00;99.10;;;;;;4991587;28;20180;-66
2022/08/17 02:20:30;;;;;;;15.33;14.13;;;22.00;99.00;;;;;;4956735;28;20438;-66
2022/08/17 02:22:59;;;;;;;15.77;14.30;;;22.00;99.00;;;;;;4991750;28;20413;-66
2022/08/17 02:25:25;;;;;;;15.53;14.33;;;22.00;98.90;;;;;;4992745;28;20462;-66
2022/08/17 02:27:51;;;;;;;15.30;13.90;;;22.00;99.00;;;;;;4991749;28;20423;-66
2022/08/17 02:30:17;;;;;;;15.40;13.90;;;22.00;98.90;;;;;;4992525;28;20423;-66
2022/08/17 02:32:43;;;;;;;15.50;14.10;;;22.00;99.00;;;;;;4992338;28;20285;-73
2022/08/17 02:35:09;;;;;;;16.43;15.13;;;22.00;99.00;;;;;;5009804;28;20449;-66
2022/08/17 02:37:35;;;;;;;15.10;13.57;;;22.00;99.10;;;;;;5011267;28;20430;-66
2022/08/17 02:40:01;;;;;;;16.20;14.90;;;22.00;99.10;;;;;;5011187;28;20410;-66
2022/08/17 02:42:37;;;;;;;16.40;15.20;;;22.10;99.10;;;;;;5011694;28;20418;-66
2022/08/17 02:45:06;;;;;;;15.87;14.67;;;22.00;99.00;;;;;;5010847;28;20446;-67
2022/08/17 02:47:32;;;;;;;18.37;16.80;;;22.00;99.10;;;;;;4992371;28;20410;-65
2022/08/17 02:49:58;;;;;;;17.90;16.20;;;22.00;99.00;;;;;;4991542;28;20498;-66
2022/08/17 02:52:30;;;;;;;16.77;15.07;;;22.00;99.00;;;;;;5011326;28;20505;-66
2022/08/17 02:54:56;;;;;;;17.87;16.30;;;22.00;99.20;;;;;;5010934;28;20273;-66
2022/08/17 02:57:22;;;;;;;17.50;15.80;;;22.00;99.20;;;;;;5015018;28;20504;-66
2022/08/17 02:59:47;;;;;;;16.40;15.00;;;22.00;99.20;;;;;;5013873;28;20909;-74
2022/08/17 03:02:13;;;;;;;16.67;15.37;;;22.00;99.10;;;;;;5013164;28;20194;-66
2022/08/17 03:04:39;;;;;;;17.00;15.50;;;22.00;99.00;;;;;;4948280;28;20282;-65
2022/08/17 03:07:05;;;;;;;17.60;16.00;;;22.00;99.20;;;;;;5005668;28;20215;-66
2022/08/17 03:09:31;;;;;;;17.30;15.90;;;22.00;99.10;;;;;;5000344;28;20203;-65
2022/08/17 03:12:11;;;;;;;16.23;14.93;;;21.90;99.30;;;;;;4944378;28;20418;-66
2022/08/17 03:14:39;;;;;;;18.40;16.80;;;22.00;99.50;;;;;;4995257;28;20449;-65
2022/08/17 03:17:05;;;;;;;15.70;14.40;;;22.00;99.50;;;;;;4994517;28;20455;-72
2022/08/17 03:19:31;;;;;;;17.50;15.90;;;22.00;99.50;;;;;;5014489;28;20496;-65
2022/08/17 03:21:58;;;;;;;17.10;15.40;;;22.00;99.10;;;;;;5014420;28;20185;-66
2022/08/17 03:24:24;;;;;;;18.00;16.50;;;22.00;99.20;;;;;;5014998;28;20187;-65
2022/08/17 03:26:49;;;;;;;17.20;15.70;;;22.00;99.30;;;;;;5014073;28;21032;-75
2022/08/17 03:29:18;;;;;;;17.00;15.40;;;22.00;99.40;;;;;;5014568;28;20187;-65
2022/08/17 03:31:47;;;;;;;17.63;16.07;;;22.00;99.50;;;;;;5013881;28;20605;-65
2022/08/17 03:34:14;;;;;;;19.87;17.97;;;22.00;99.80;;;;;;5001248;28;20435;-66
2022/08/17 03:36:40;;;;;;;19.50;17.70;;;22.10;99.60;;;;;;4994876;28;20423;-65
2022/08/17 03:39:05;;;;;;;21.43;18.90;;;22.00;99.50;;;;;;4994138;28;20418;-65
2022/08/17 03:41:32;;;;;;;22.07;18.80;;;22.00;99.50;;;;;;4995063;28;20620;-65
2022/08/17 03:43:58;;;;;;;20.10;18.40;;;22.00;99.60;;;;;;4995626;28;20187;-65
2022/08/17 03:57:25;;;;;;;16.93;15.63;;;21.90;99.90;;;;;;5014315;28;20398;-65
2022/08/17 03:59:52;;;;;;;17.73;16.10;;;22.00;99.90;;;;;;5011618;28;20430;-75
2022/08/17 04:02:22;;;;;;;16.97;15.67;;;22.00;99.90;;;;;;5013427;28;20440;-65
2022/08/17 04:04:49;;;;;;;17.57;16.07;;;22.00;99.80;;;;;;5013754;28;20989;-74
2022/08/17 04:07:15;;;;;;;18.07;16.50;;;22.10;99.80;;;;;;5012377;28;20976;-65
2022/08/17 04:09:41;;;;;;;17.33;15.83;;;22.10;99.80;;;;;;5010163;28;20430;-65
2022/08/17 04:12:07;;;;;;;18.60;16.90;;;22.00;99.70;;;;;;4992341;28;20454;-65
2022/08/17 04:14:37;;;;;;;18.43;16.80;;;22.00;99.60;;;;;;4994404;28;20469;-66
2022/08/17 04:17:04;;;;;;;17.90;16.40;;;22.00;99.60;;;;;;4992345;28;20184;-65
2022/08/17 04:19:30;;;;;;;18.10;16.47;;;22.00;99.60;;;;;;4996654;28;20430;-65
2022/08/17 04:21:56;;;;;;;17.53;16.23;;;22.00;99.80;;;;;;5013009;28;20475;-66
2022/08/17 04:24:23;;;;;;;18.27;16.50;;;22.00;99.80;;;;;;5013792;28;20422;-65
2022/08/17 04:26:49;;;;;;;20.30;18.30;;;22.00;99.90;;;;;;5010538;28;20462;-74
2022/08/17 04:29:18;;;;;;;18.77;16.97;;;22.00;99.90;;;;;;5012863;28;20580;-65
2022/08/17 04:31:43;;;;;;;17.80;16.20;;;22.00;99.90;;;;;;5010666;28;20179;-69
2022/08/17 04:34:10;;;;;;;19.30;17.40;;;22.00;99.80;;;;;;5010371;28;20445;-66
2022/08/17 04:36:36;;;;;;;17.40;15.80;;;21.90;99.80;;;;;;5013379;28;20186;-65
2022/08/17 04:39:02;;;;;;;18.00;16.50;;;21.90;99.90;;;;;;5012763;28;20549;-66
2022/08/17 04:44:12;;;;;;;18.80;17.23;;;22.00;99.90;;;;;;5011898;28;20185;-65
2022/08/17 04:46:37;;;;;;;18.33;16.83;;;22.00;99.90;;;;;;5011742;28;20473;-66
2022/08/17 04:49:09;;;;;;;17.37;16.07;;;22.00;99.90;;;;;;5012533;28;20174;-65
2022/08/17 04:51:38;;;;;;;19.63;17.83;;;22.00;99.90;;;;;;5013288;28;20179;-65
2022/08/17 04:54:07;;;;;;;18.87;17.20;;;22.00;99.90;;;;;;5012526;28;20421;-65
2022/08/17 04:56:33;;;;;;;19.77;18.00;;;22.00;99.90;;;;;;5002912;28;20445;-65
2022/08/17 04:59:03;;;;;;;23.30;20.90;;;22.00;99.90;;;;;;4992772;28;20419;-66
2022/08/17 05:01:33;;;;;;;20.83;18.70;;;22.00;99.90;;;;;;5007707;28;20512;-66
2022/08/17 05:04:01;;;;;;;20.77;18.67;;;22.00;99.90;;;;;;5008876;28;20473;-66
2022/08/17 05:06:28;;;;;;;21.20;19.30;;;22.00;99.90;;;;;;5012642;28;21016;-65
2022/08/17 05:08:54;;;;;;;22.07;19.77;;;22.10;99.90;;;;;;4994287;28;20774;-74
2022/08/17 05:11:21;;;;;;;21.43;18.77;;;22.10;99.90;;;;;;5011826;28;20426;-65
2022/08/17 05:13:48;;;;;;;19.93;17.90;;;22.10;99.90;;;;;;5012651;28;20449;-65
2022/08/17 05:16:16;;;;;;;20.80;18.70;;;22.10;99.90;;;;;;5012015;28;20414;-65
2022/08/17 05:18:41;;;;;;;22.80;20.57;;;22.10;99.90;;;;;;4994289;28;20414;-65
2022/08/17 05:21:07;;;;;;;19.53;17.97;;;22.10;99.90;;;;;;5010416;28;20847;-65
2022/08/17 05:23:34;;;;;;;19.00;17.37;;;22.10;99.90;;;;;;5011122;28;20177;-69
2022/08/17 05:26:00;;;;;;;18.37;16.60;;;22.20;99.90;;;;;;5009436;28;20481;-65
2022/08/17 05:28:27;;;;;;;18.10;16.60;;;22.20;99.90;;;;;;5012035;28;20436;-65
2022/08/17 05:30:55;;;;;;;17.30;15.83;;;22.20;99.90;;;;;;5007185;28;20836;-70
2022/08/17 05:33:27;;;;;;;20.17;18.13;;;22.20;99.90;;;;;;5004198;28;20525;-66
2022/08/17 05:35:56;;;;;;;17.80;16.13;;;22.30;99.90;;;;;;5010844;28;20413;-64
2022/08/17 05:38:25;;;;;;;19.20;17.60;;;22.50;99.90;;;;;;5012081;28;20430;-64
2022/08/17 05:40:52;;;;;;;19.87;18.07;;;22.50;99.70;;;;;;5012811;28;20761;-65
2022/08/17 05:43:27;;;;;;;19.20;17.30;;;22.20;99.90;;;;;;5011925;28;20421;-65
2022/08/17 05:46:12;;;;;;;24.53;18.93;;;22.10;99.90;;;;;;4995193;28;20518;-65
2022/08/17 05:48:43;;;;;;;18.60;17.00;;;22.10;99.90;;;;;;5012878;28;20441;-64
2022/08/17 05:51:27;;;;;;;19.03;17.20;;;22.20;99.90;;;;;;5012016;28;20972;-64
2022/08/17 05:54:19;;;;;;;18.70;16.67;;;22.40;99.90;;;;;;5011343;28;20802;-65
2022/08/17 05:56:56;;;;;;;20.67;18.77;;;22.60;99.90;;;;;;5010064;28;20461;-64
2022/08/17 05:59:56;;;;;;;18.37;16.70;;;22.70;99.90;;;;;;5011901;28;20426;-65
2022/08/17 06:02:52;;;;;;;19.37;17.33;;;22.90;99.60;;;;;;5006108;28;20453;-65
2022/08/17 06:05:57;;;;;;;18.87;16.67;;;23.10;99.50;;;;;;5008138;28;20524;-64
2022/08/17 06:08:33;;;;;;;18.90;16.90;;;23.20;99.30;;;;;;4884415;29;20494;-65
2022/08/17 06:11:35;;;;;;;16.10;14.70;;;23.30;98.20;;;;;;4911726;29;20877;-65
2022/08/17 06:14:12;;;;;;;15.07;13.67;;;23.50;98.40;;;;;;4901213;29;20446;-65
2022/08/17 06:16:43;;;;;;;17.43;15.83;;;23.50;97.30;;;;;;4908486;29;20489;-65
2022/08/17 06:19:18;;;;;;;17.87;16.27;;;23.60;97.60;;;;;;4911302;29;20542;-65
2022/08/17 06:21:47;;;;;;;18.80;17.20;;;23.60;97.40;;;;;;4931016;29;20432;-64
2022/08/17 06:24:33;;;;;;;17.60;16.17;;;23.70;97.60;;;;;;4910490;29;21338;-65
2022/08/17 06:27:21;;;;;;;17.43;15.73;;;23.80;97.50;;;;;;4908647;29;20856;-65
2022/08/17 06:29:50;;;;;;;17.20;15.70;;;23.90;97.00;;;;;;4905624;29;20433;-65
2022/08/17 06:32:16;;;;;;;17.03;15.13;;;24.00;96.90;;;;;;4916724;29;20441;-65
2022/08/17 06:34:44;;;;;;;19.50;17.67;;;24.00;96.50;;;;;;4917305;29;20434;-65
2022/08/17 06:37:38;;;;;;;15.80;14.30;;;24.10;96.50;;;;;;4916764;29;20189;-65
2022/08/17 06:40:22;;;;;;;16.70;15.40;;;24.20;96.40;;;;;;5004098;28;20429;-62
2022/08/17 06:43:25;;;;;;;16.90;15.50;;;24.30;96.40;;;;;;5015815;28;20893;-61
2022/08/17 06:46:06;;;;;;;15.37;14.03;;;24.20;96.40;;;;;;5016017;28;20463;-62
2022/08/17 06:48:53;;;;;;;16.70;15.10;;;24.10;96.30;;;;;;5016030;28;20406;-61
2022/08/17 06:51:36;;;;;;;14.70;12.80;;;24.00;96.20;;;;;;5014985;28;20437;-61
2022/08/17 06:54:30;;;;;;;14.17;12.87;;;24.00;96.50;;;;;;5014953;28;20913;-62
2022/08/17 06:57:27;;;;;;;13.13;11.83;;;23.90;96.80;;;;;;5009491;28;20540;-62
2022/08/17 07:00:09;;;;;;;13.57;12.37;;;23.80;97.00;;;;;;4997383;28;20480;-62
2022/08/17 07:03:05;;;;;;;13.50;12.30;;;23.70;96.40;;;;;;5015655;28;20941;-61
2022/08/17 07:05:55;;;;;;;13.47;12.43;;;23.60;96.20;;;;;;4998749;28;20837;-62
2022/08/17 07:08:32;;;;;;;13.60;12.57;;;23.60;96.70;;;;;;5012594;28;20851;-62
2022/08/17 07:11:08;;;;;;;15.60;14.33;;;23.60;97.10;;;;;;5013285;28;20433;-65
2022/08/17 07:13:46;;;;;;;13.50;12.20;;;23.60;97.40;;;;;;5015231;28;20421;-62
2022/08/17 07:16:21;;;;;;;13.60;12.30;;;23.60;97.40;;;;;;5013315;28;20491;-61
2022/08/17 07:18:51;;;;;;;13.43;12.33;;;23.70;97.10;;;;;;4995508;28;20494;-61
2022/08/17 07:22:05;;;;;;;13.13;11.90;;;23.70;96.70;;;;;;4977523;28;20785;-61
2022/08/17 07:24:42;;;;;;;14.17;13.07;;;23.70;96.40;;;;;;4987090;28;20415;-61
2022/08/17 07:27:13;;;;;;;14.00;12.77;;;23.70;96.40;;;;;;4995059;28;20420;-61
2022/08/17 07:29:56;;;;;;;15.50;14.07;;;23.70;96.20;;;;;;4995895;28;20423;-61
2022/08/17 07:32:26;;;;;;;13.73;12.40;;;23.70;96.20;;;;;;4994995;28;20474;-61
2022/08/17 07:35:19;;;;;;;14.77;13.20;;;23.70;95.60;;;;;;4995585;28;20403;-61
2022/08/17 07:38:14;;;;;;;14.13;11.80;;;23.70;96.00;;;;;;4995530;28;20395;-61
2022/08/17 07:41:03;;;;;;;14.13;12.90;;;23.80;96.20;;;;;;4984243;28;20434;-62
2022/08/17 07:43:38;;;;;;;14.27;12.87;;;23.90;96.60;;;;;;4995493;28;20400;-61
2022/08/17 07:49:18;;;;;;;14.90;13.47;;;24.10;97.20;;;;;;4995394;28;20427;-61
2022/08/17 07:51:45;;;;;;;15.73;14.30;;;24.30;96.40;;;;;;4995596;28;20403;-61
2022/08/17 07:54:14;;;;;;;15.63;14.13;;;24.50;96.60;;;;;;4994570;28;20423;-61
2022/08/17 07:56:48;;;;;;;14.43;13.03;;;24.60;96.80;;;;;;4995146;28;20454;-61
2022/08/17 07:59:31;;;;;;;16.67;15.13;;;24.80;95.80;;;;;;5004257;28;20480;-62
2022/08/17 08:01:56;;;;;;;18.67;16.87;;;24.90;96.10;;;;;;5010478;28;20445;-61
2022/08/17 08:04:43;;;;;;;15.60;13.93;;;25.10;96.30;;;;;;5001300;28;20482;-61
2022/08/17 08:07:22;;;;;;;14.20;13.07;;;25.10;94.20;;;;;;4996390;28;20549;-62
2022/08/17 08:10:10;;;;;;;12.57;11.30;;;25.10;93.90;;;;;;5014482;28;20409;-62
2022/08/17 08:12:47;;;;;;;16.47;15.07;;;25.30;94.70;;;;;;5006995;28;20945;-62
2022/08/17 08:15:32;;;;;;;13.47;12.10;;;25.40;94.30;;;;;;5013539;28;20433;-62
2022/08/17 08:18:01;;;;;;;13.17;12.07;;;25.50;93.50;;;;;;5008578;28;20941;-62
2022/08/17 08:20:37;;;;;;;10.03;9.03;;;25.60;93.20;;;;;;5011709;28;20471;-62
2022/08/17 08:23:14;;;;;;;11.80;10.67;;;25.80;92.40;;;;;;5014025;28;20429;-65
2022/08/17 08:26:15;;;;;;;10.50;9.50;;;26.00;91.90;;;;;;5013349;28;20473;-62
2022/08/17 08:29:05;;;;;;;9.00;8.20;;;26.10;91.10;;;;;;4970217;28;20434;-62
2022/08/17 08:31:48;;;;;;;8.80;8.20;;;26.30;90.50;;;;;;5013824;28;20814;-62
2022/08/17 08:34:44;;;;;;;12.63;10.47;;;26.60;90.50;;;;;;5013396;28;20414;-62
2022/08/17 08:37:48;;;;;;;9.00;8.50;;;26.70;90.00;;;;;;5002745;28;20438;-62
2022/08/17 08:40:35;;;;;;;9.50;8.70;;;26.90;88.50;;;;;;4976345;28;20783;-62
2022/08/17 08:43:09;;;;;;;8.80;8.20;;;27.00;87.90;;;;;;5014112;28;20730;-62
2022/08/17 08:45:36;;;;;;;9.80;9.20;;;27.00;86.60;;;;;;5014345;28;20811;-62
2022/08/17 08:48:08;;;;;;;8.90;8.20;;;27.10;85.50;;;;;;5013736;28;20414;-62
2022/08/17 08:50:36;;;;;;;9.40;8.60;;;27.20;85.40;;;;;;5013543;28;20476;-62
2022/08/17 08:53:13;;;;;;;8.23;7.60;;;27.10;84.70;;;;;;5013018;28;20411;-62
2022/08/17 08:55:45;;;;;;;9.10;8.33;;;27.10;83.90;;;;;;5013349;28;20729;-62
2022/08/17 08:58:43;;;;;;;10.80;9.70;;;27.20;83.90;;;;;;5012295;28;21070;-62
2022/08/17 09:01:27;;;;;;;9.47;8.87;;;27.20;82.90;;;;;;4984027;28;20529;-62
2022/08/17 09:04:17;;;;;;;7.90;7.30;;;27.20;83.30;;;;;;4996945;28;20809;-62
2022/08/17 09:07:11;;;;;;;9.80;9.10;;;27.20;83.30;;;;;;5008108;28;20461;-62
2022/08/17 09:10:05;;;;;;;8.13;7.57;;;27.20;83.50;;;;;;5010669;28;20425;-62
2022/08/17 09:12:58;;;;;;;8.60;8.00;;;27.20;82.70;;;;;;5012760;28;20413;-62
2022/08/17 09:15:28;;;;;;;7.87;7.37;;;27.20;83.00;;;;;;5012730;28;20760;-62
2022/08/17 09:18:22;;;;;;;8.00;7.30;;;27.10;82.60;;;;;;5013413;28;20421;-61
2022/08/17 09:21:01;;;;;;;8.43;7.93;;;27.20;83.00;;;;;;4995590;28;20406;-62
2022/08/17 09:23:58;;;;;;;8.67;8.10;;;27.10;83.00;;;;;;5012886;28;20594;-62
2022/08/17 09:26:35;;;;;;;8.43;7.70;;;27.20;83.50;;;;;;4994987;28;20452;-62
2022/08/17 09:29:07;;;;;;;9.07;8.30;;;27.10;83.40;;;;;;5012438;28;20780;-62
2022/08/17 09:32:02;;;;;;;8.17;7.50;;;27.10;83.50;;;;;;4998255;28;20431;-62
2022/08/17 09:34:48;;;;;;;7.43;6.90;;;27.00;83.20;;;;;;4991611;28;20952;-62
2022/08/17 09:37:18;;;;;;;9.33;8.63;;;26.90;82.40;;;;;;4992872;28;20446;-62
2022/08/17 09:40:10;;;;;;;8.67;8.00;;;26.90;82.80;;;;;;4993251;28;20733;-61
2022/08/17 09:42:51;;;;;;;8.70;7.90;;;26.90;83.30;;;;;;4993556;28;20418;-61
2022/08/17 09:45:44;;;;;;;8.67;8.07;;;26.80;83.20;;;;;;4975148;28;20477;-62
2022/08/17 09:48:31;;;;;;;9.80;8.90;;;26.70;83.00;;;;;;4992704;28;20414;-62
2022/08/17 09:51:05;;;;;;;9.03;8.20;;;26.70;83.20;;;;;;4993299;28;20473;-62
2022/08/17 09:53:34;;;;;;;8.90;8.30;;;26.70;83.20;;;;;;4992349;28;20398;-62
2022/08/17 09:56:27;;;;;;;10.27;8.50;;;26.70;83.70;;;;;;4992878;28;20958;-62
2022/08/17 09:58:54;;;;;;;9.73;8.93;;;26.60;83.80;;;;;;4992912;28;20423;-62
2022/08/17 10:01:35;;;;;;;9.57;9.00;;;26.60;84.30;;;;;;4992543;28;20430;-62
2022/08/17 10:04:19;;;;;;;9.30;8.40;;;26.60;83.90;;;;;;4993340;28;20501;-61
2022/08/17 10:06:57;;;;;;;9.60;8.80;;;26.50;84.90;;;;;;4996904;28;20447;-62
2022/08/17 10:09:38;;;;;;;8.20;7.70;;;26.50;84.90;;;;;;4996254;28;20962;-62
2022/08/17 10:12:18;;;;;;;8.53;7.93;;;26.50;84.90;;;;;;4997161;28;20802;-62
2022/08/17 10:15:08;;;;;;;8.93;8.10;;;26.40;84.00;;;;;;4996735;28;20752;-62
2022/08/17 10:17:43;;;;;;;9.57;8.87;;;26.30;83.90;;;;;;4995039;28;20426;-61
2022/08/17 10:20:24;;;;;;;11.20;10.50;;;26.30;84.80;;;;;;4996888;28;20493;-62
2022/08/17 10:28:39;;;;;;;10.47;9.67;;;26.20;85.00;;;;;;5016024;28;20485;-61
2022/08/17 10:31:08;;;;;;;9.17;8.67;;;26.20;85.50;;;;;;5016288;28;20405;-62
2022/08/17 10:34:18;;;;;;;11.80;10.97;;;26.20;85.70;;;;;;5015278;28;20472;-62
2022/08/17 10:36:58;;;;;;;9.53;8.83;;;26.10;86.50;;;;;;5016364;28;20784;-62
2022/08/17 10:39:30;;;;;;;10.67;9.87;;;26.10;86.90;;;;;;5015331;28;20418;-61
2022/08/17 10:42:14;;;;;;;10.40;9.63;;;26.00;87.20;;;;;;5016231;28;20398;-62
2022/08/17 10:44:55;;;;;;;10.60;9.80;;;26.10;88.10;;;;;;5015960;28;20394;-61
2022/08/17 10:47:25;;;;;;;10.93;10.03;;;26.00;88.00;;;;;;5015155;28;20405;-62
2022/08/17 10:49:55;;;;;;;10.20;9.50;;;26.00;88.30;;;;;;5015717;28;20464;-62
2022/08/17 10:52:27;;;;;;;12.33;11.33;;;26.00;89.00;;;;;;5012720;28;20509;-63
2022/08/17 10:54:55;;;;;;;11.23;10.20;;;26.00;89.40;;;;;;4997683;28;20821;-63
2022/08/17 10:57:32;;;;;;;12.07;11.17;;;26.10;90.00;;;;;;5014469;28;20438;-62
2022/08/17 11:00:30;;;;;;;12.03;11.13;;;26.00;89.80;;;;;;5015508;28;20425;-62
2022/08/17 11:02:57;;;;;;;12.63;11.70;;;26.00;90.10;;;;;;5013147;28;20485;-63
2022/08/17 11:05:52;;;;;;;12.07;10.60;;;25.90;89.80;;;;;;4997243;28;20469;-62
2022/08/17 11:08:34;;;;;;;12.47;11.57;;;26.00;89.50;;;;;;5014983;28;20893;-63
2022/08/17 11:11:09;;;;;;;12.30;11.47;;;25.90;90.00;;;;;;4997564;28;20425;-63
2022/08/17 11:13:51;;;;;;;12.93;11.80;;;25.90;90.20;;;;;;5014724;28;20544;-63
2022/08/17 11:16:52;;;;;;;12.53;11.63;;;25.90;90.20;;;;;;5014086;28;20765;-63
2022/08/17 11:19:43;;;;;;;13.27;12.13;;;25.90;90.30;;;;;;5014871;28;20815;-63
2022/08/17 11:22:32;;;;;;;13.20;12.20;;;25.80;90.60;;;;;;5014805;28;20433;-62
2022/08/17 11:25:16;;;;;;;14.33;13.03;;;25.80;90.50;;;;;;4997752;28;20422;-63
2022/08/17 11:27:43;;;;;;;13.37;12.37;;;25.80;90.50;;;;;;5013989;28;20437;-62
2022/08/17 11:30:34;;;;;;;12.30;11.40;;;25.70;90.40;;;;;;5015308;28;20417;-63
2022/08/17 11:33:35;;;;;;;13.13;12.13;;;25.70;90.70;;;;;;5015211;28;20587;-62
2022/08/17 11:36:16;;;;;;;14.53;13.13;;;25.70;91.20;;;;;;5014977;28;20859;-63
2022/08/17 11:39:13;;;;;;;13.80;12.50;;;25.70;91.20;;;;;;5015037;28;20782;-62
2022/08/17 11:41:54;;;;;;;14.13;12.93;;;25.80;91.30;;;;;;5014436;28;20402;-62
2022/08/17 11:44:37;;;;;;;16.00;14.53;;;25.90;91.50;;;;;;5014367;28;20453;-63
2022/08/17 11:53:56;;;;;;;14.77;13.50;;;26.00;91.20;;;;;;5014272;28;20430;-63
2022/08/17 11:56:35;;;;;;;15.83;14.33;;;26.10;91.00;;;;;;4963414;28;20494;-63
2022/08/17 11:59:01;;;;;;;17.43;16.10;;;26.10;91.30;;;;;;5014609;28;20418;-62
2022/08/17 12:01:27;;;;;;;16.73;15.43;;;26.20;91.00;;;;;;5013234;28;20434;-63
2022/08/17 12:04:15;;;;;;;16.70;15.30;;;26.20;90.90;;;;;;5014879;28;20474;-63
2022/08/17 12:06:43;;;;;;;18.03;16.57;;;26.20;90.90;;;;;;5013799;28;20904;-63
2022/08/17 12:09:41;;;;;;;17.17;15.67;;;26.30;90.90;;;;;;5014454;28;20414;-63
2022/08/17 12:12:15;;;;;;;15.80;14.20;;;26.30;91.10;;;;;;5009613;28;20833;-63
2022/08/17 12:14:53;;;;;;;17.03;15.70;;;26.50;91.30;;;;;;5013817;28;20410;-63
2022/08/17 12:17:26;;;;;;;15.83;14.67;;;26.50;91.40;;;;;;5013723;28;20430;-63
2022/08/17 12:20:15;;;;;;;17.63;16.13;;;26.70;91.70;;;;;;5014383;28;20480;-63
2022/08/17 12:23:19;;;;;;;17.30;15.93;;;26.90;90.80;;;;;;5013375;28;20902;-63
2022/08/17 12:25:48;;;;;;;17.77;16.37;;;27.00;90.70;;;;;;4976519;28;20469;-63
2022/08/17 12:28:26;;;;;;;18.70;17.43;;;27.10;90.00;;;;;;5012447;28;20449;-63
2022/08/17 12:30:53;;;;;;;16.93;15.53;;;27.00;89.50;;;;;;5014160;28;20398;-63
2022/08/17 12:33:24;;;;;;;17.60;16.17;;;27.00;90.00;;;;;;5013383;28;20418;-68
2022/08/17 12:36:05;;;;;;;18.77;16.83;;;27.00;89.80;;;;;;5014021;28;20489;-63
2022/08/17 12:38:33;;;;;;;16.83;15.63;;;27.10;90.00;;;;;;5012992;28;20466;-63
2022/08/17 12:41:25;;;;;;;17.50;16.20;;;27.10;89.80;;;;;;5013041;28;20791;-63
2022/08/17 12:44:00;;;;;;;16.17;14.93;;;27.10;89.90;;;;;;5014039;28;20422;-63
2022/08/17 12:46:27;;;;;;;17.17;15.87;;;27.20;90.10;;;;;;5012844;28;20880;-63
2022/08/17 12:48:53;;;;;;;19.40;15.07;;;27.20;90.10;;;;;;5013809;28;20455;-63
2022/08/17 12:51:19;;;;;;;16.80;15.27;;;27.40;90.00;;;;;;5013604;28;20504;-71
2022/08/17 12:53:53;;;;;;;15.70;14.50;;;27.50;89.00;;;;;;4996097;28;21012;-62
2022/08/17 12:56:19;;;;;;;17.27;15.53;;;27.70;88.80;;;;;;5013966;28;20452;-63
2022/08/17 12:58:52;;;;;;;16.40;15.10;;;27.70;88.80;;;;;;5013588;28;20421;-63
2022/08/17 13:01:41;;;;;;;20.90;15.83;;;27.80;88.20;;;;;;4952450;29;20787;-63
2022/08/17 13:04:12;;;;;;;16.93;15.73;;;27.80;87.30;;;;;;4951407;29;20509;-63
2022/08/17 13:06:47;;;;;;;16.37;15.17;;;27.80;86.90;;;;;;4952247;29;20551;-63
2022/08/17 13:09:20;;;;;;;16.20;14.97;;;27.80;88.00;;;;;;4952891;29;20416;-63
2022/08/17 13:11:49;;;;;;;18.43;17.13;;;27.80;86.60;;;;;;4953037;29;20428;-62
2022/08/17 13:14:17;;;;;;;16.13;14.80;;;27.90;86.80;;;;;;4952845;29;20524;-62
2022/08/17 13:16:59;;;;;;;17.80;16.30;;;28.00;87.00;;;;;;4952012;29;20439;-63
2022/08/17 13:19:28;;;;;;;17.50;16.20;;;28.10;87.40;;;;;;4951771;29;20476;-69
2022/08/17 13:21:57;;;;;;;17.70;16.20;;;28.20;87.50;;;;;;4952460;29;20553;-63
2022/08/17 13:24:25;;;;;;;16.30;14.90;;;28.30;86.40;;;;;;4951802;29;20428;-64
2022/08/17 13:27:03;;;;;;;16.37;14.90;;;28.50;86.90;;;;;;4952416;29;20826;-63
2022/08/17 13:29:39;;;;;;;17.43;15.83;;;28.60;86.80;;;;;;4951908;29;20421;-63
2022/08/17 13:32:08;;;;;;;17.97;16.47;;;28.70;83.40;;;;;;4969342;28;20418;-63
2022/08/17 13:34:52;;;;;;;19.17;17.77;;;28.70;84.90;;;;;;5012369;28;20433;-63
2022/08/17 13:40:03;;;;;;;17.80;16.30;;;28.90;83.30;;;;;;5013048;28;20420;-63
2022/08/17 13:42:41;;;;;;;17.40;15.97;;;29.00;83.30;;;;;;4994128;28;20414;-63